Salt Lake City, Utah
Traffic Map
Current Weather Conditions
Salt Lake City, Utah
Overcast Haze
Overcast
30°
Feels Like: 30°
Wind Chill: 30° Ceiling: 500
Heat Index: 30° Visibility: 1mi
Dew Point: 28° Wind: 3mph
Humidity: 92% Direction: ° ()
Pressure: 30.48in Gusts: 0mph
Raw Report DataKSLC 102022Z VRB03KT 1SM R34R/P6000FT BR OVC005 M01/M02 A3048 RMK AO2 SFC VIS 1 1/2 T10111022
Traffic Incident Summary
Active as of:
Severity:
Category:
InformationThere was an issue retrieving the traffic information for this location. Please try a different location or try again shortly.
Advertisements
Track Severe Weather on mobile